sensor_id;sensor_type;location;lat;lon;timestamp;temperature;humidity
51801;DHT22;37855;53.204;6.568;2023-02-28T00:01:19;5.10;76.30
51801;DHT22;37855;53.204;6.568;2023-02-28T00:03:44;5.10;76.50
51801;DHT22;37855;53.204;6.568;2023-02-28T00:06:10;5.10;77.00
51801;DHT22;37855;53.204;6.568;2023-02-28T00:08:37;5.10;76.90
51801;DHT22;37855;53.204;6.568;2023-02-28T00:11:04;5.00;76.60
51801;DHT22;37855;53.204;6.568;2023-02-28T00:13:38;5.00;76.40
51801;DHT22;37855;53.204;6.568;2023-02-28T00:16:07;5.10;76.40
51801;DHT22;37855;53.204;6.568;2023-02-28T00:18:33;5.00;76.30
51801;DHT22;37855;53.204;6.568;2023-02-28T00:21:03;5.10;76.40
51801;DHT22;37855;53.204;6.568;2023-02-28T00:23:33;5.10;76.40
51801;DHT22;37855;53.204;6.568;2023-02-28T00:25:59;5.10;76.30
51801;DHT22;37855;53.204;6.568;2023-02-28T00:28:24;5.10;76.30
51801;DHT22;37855;53.204;6.568;2023-02-28T00:30:50;5.10;76.40
51801;DHT22;37855;53.204;6.568;2023-02-28T00:33:16;5.10;76.30
51801;DHT22;37855;53.204;6.568;2023-02-28T00:35:45;5.10;76.40
51801;DHT22;37855;53.204;6.568;2023-02-28T00:38:12;5.20;76.40
51801;DHT22;37855;53.204;6.568;2023-02-28T00:40:38;5.20;76.40
51801;DHT22;37855;53.204;6.568;2023-02-28T00:43:07;5.20;76.40
51801;DHT22;37855;53.204;6.568;2023-02-28T00:45:33;5.20;76.40
51801;DHT22;37855;53.204;6.568;2023-02-28T00:47:58;5.20;76.40
51801;DHT22;37855;53.204;6.568;2023-02-28T00:50:25;5.30;76.50
51801;DHT22;37855;53.204;6.568;2023-02-28T00:52:54;5.20;76.50
51801;DHT22;37855;53.204;6.568;2023-02-28T00:55:20;5.20;76.40
51801;DHT22;37855;53.204;6.568;2023-02-28T00:57:46;5.20;76.40
51801;DHT22;37855;53.204;6.568;2023-02-28T01:00:12;5.20;76.50
51801;DHT22;37855;53.204;6.568;2023-02-28T01:02:38;5.30;76.50
51801;DHT22;37855;53.204;6.568;2023-02-28T01:05:04;5.20;76.50
51801;DHT22;37855;53.204;6.568;2023-02-28T01:07:30;5.30;76.50
51801;DHT22;37855;53.204;6.568;2023-02-28T01:09:55;5.30;76.50
51801;DHT22;37855;53.204;6.568;2023-02-28T01:12:26;5.30;76.60
51801;DHT22;37855;53.204;6.568;2023-02-28T01:14:52;5.30;76.60
51801;DHT22;37855;53.204;6.568;2023-02-28T01:17:36;5.30;76.60
51801;DHT22;37855;53.204;6.568;2023-02-28T01:20:14;5.30;76.60
51801;DHT22;37855;53.204;6.568;2023-02-28T01:22:58;5.30;76.50
51801;DHT22;37855;53.204;6.568;2023-02-28T01:25:35;5.30;76.70
51801;DHT22;37855;53.204;6.568;2023-02-28T01:28:01;5.30;76.60
51801;DHT22;37855;53.204;6.568;2023-02-28T01:30:49;5.30;76.60
51801;DHT22;37855;53.204;6.568;2023-02-28T01:33:38;5.30;76.70
51801;DHT22;37855;53.204;6.568;2023-02-28T01:36:16;5.30;76.60
51801;DHT22;37855;53.204;6.568;2023-02-28T01:38:49;5.30;76.60
51801;DHT22;37855;53.204;6.568;2023-02-28T01:41:23;5.30;76.60
51801;DHT22;37855;53.204;6.568;2023-02-28T01:47:08;5.30;76.70
51801;DHT22;37855;53.204;6.568;2023-02-28T01:49:43;5.40;76.80
51801;DHT22;37855;53.204;6.568;2023-02-28T01:52:12;5.40;76.80
51801;DHT22;37855;53.204;6.568;2023-02-28T01:54:46;5.40;76.70
51801;DHT22;37855;53.204;6.568;2023-02-28T01:57:19;5.40;76.80
51801;DHT22;37855;53.204;6.568;2023-02-28T01:59:51;5.40;77.00
51801;DHT22;37855;53.204;6.568;2023-02-28T02:02:19;5.40;76.90
51801;DHT22;37855;53.204;6.568;2023-02-28T02:04:57;5.40;76.90
51801;DHT22;37855;53.204;6.568;2023-02-28T02:07:25;5.40;77.00
51801;DHT22;37855;53.204;6.568;2023-02-28T02:10:16;5.40;77.10
51801;DHT22;37855;53.204;6.568;2023-02-28T02:13:03;5.40;77.20
51801;DHT22;37855;53.204;6.568;2023-02-28T02:23:51;5.40;77.20
51801;DHT22;37855;53.204;6.568;2023-02-28T02:34:50;5.40;77.00
51801;DHT22;37855;53.204;6.568;2023-02-28T02:37:47;5.50;76.40
51801;DHT22;37855;53.204;6.568;2023-02-28T02:40:15;5.40;76.20
51801;DHT22;37855;53.204;6.568;2023-02-28T02:45:56;5.30;76.30
51801;DHT22;37855;53.204;6.568;2023-02-28T02:48:43;5.30;76.40
51801;DHT22;37855;53.204;6.568;2023-02-28T02:51:16;5.30;76.50
51801;DHT22;37855;53.204;6.568;2023-02-28T02:53:55;5.30;76.50
51801;DHT22;37855;53.204;6.568;2023-02-28T02:56:27;5.30;76.50
51801;DHT22;37855;53.204;6.568;2023-02-28T02:58:59;5.30;76.50
51801;DHT22;37855;53.204;6.568;2023-02-28T03:01:29;5.30;76.70
51801;DHT22;37855;53.204;6.568;2023-02-28T03:04:12;5.30;76.70
51801;DHT22;37855;53.204;6.568;2023-02-28T03:06:39;5.30;76.80
51801;DHT22;37855;53.204;6.568;2023-02-28T03:09:08;5.20;76.80
51801;DHT22;37855;53.204;6.568;2023-02-28T03:11:35;5.20;76.90
51801;DHT22;37855;53.204;6.568;2023-02-28T03:30:56;5.10;77.20
51801;DHT22;37855;53.204;6.568;2023-02-28T03:33:32;5.10;77.30
51801;DHT22;37855;53.204;6.568;2023-02-28T03:36:22;5.10;77.30
51801;DHT22;37855;53.204;6.568;2023-02-28T03:38:51;5.10;77.40
51801;DHT22;37855;53.204;6.568;2023-02-28T03:41:25;5.10;77.40
51801;DHT22;37855;53.204;6.568;2023-02-28T03:43:58;5.00;77.50
51801;DHT22;37855;53.204;6.568;2023-02-28T03:46:33;5.00;77.50
51801;DHT22;37855;53.204;6.568;2023-02-28T03:49:16;5.00;77.40
51801;DHT22;37855;53.204;6.568;2023-02-28T03:51:52;5.00;77.50
51801;DHT22;37855;53.204;6.568;2023-02-28T03:54:25;5.00;77.40
51801;DHT22;37855;53.204;6.568;2023-02-28T03:57:04;4.90;77.40
51801;DHT22;37855;53.204;6.568;2023-02-28T03:59:39;4.90;77.50
51801;DHT22;37855;53.204;6.568;2023-02-28T04:02:07;4.90;77.40
51801;DHT22;37855;53.204;6.568;2023-02-28T04:04:35;4.90;77.60
51801;DHT22;37855;53.204;6.568;2023-02-28T04:07:07;4.90;77.50
51801;DHT22;37855;53.204;6.568;2023-02-28T04:09:33;4.80;77.40
51801;DHT22;37855;53.204;6.568;2023-02-28T04:12:01;4.80;77.50
51801;DHT22;37855;53.204;6.568;2023-02-28T04:14:26;4.80;77.40
51801;DHT22;37855;53.204;6.568;2023-02-28T04:16:52;4.80;77.40
51801;DHT22;37855;53.204;6.568;2023-02-28T04:19:18;4.80;77.50
51801;DHT22;37855;53.204;6.568;2023-02-28T04:21:46;4.80;77.50
51801;DHT22;37855;53.204;6.568;2023-02-28T04:24:15;4.80;77.50
51801;DHT22;37855;53.204;6.568;2023-02-28T04:26:50;4.70;77.50
51801;DHT22;37855;53.204;6.568;2023-02-28T04:29:22;4.70;77.40
51801;DHT22;37855;53.204;6.568;2023-02-28T04:31:48;4.70;77.50
51801;DHT22;37855;53.204;6.568;2023-02-28T04:34:14;4.70;77.40
51801;DHT22;37855;53.204;6.568;2023-02-28T04:36:40;4.70;77.40
51801;DHT22;37855;53.204;6.568;2023-02-28T04:39:05;4.70;77.50
51801;DHT22;37855;53.204;6.568;2023-02-28T04:41:31;4.70;77.50
51801;DHT22;37855;53.204;6.568;2023-02-28T04:43:57;4.70;77.40
51801;DHT22;37855;53.204;6.568;2023-02-28T04:46:23;4.70;77.50
51801;DHT22;37855;53.204;6.568;2023-02-28T04:48:49;4.60;77.50
51801;DHT22;37855;53.204;6.568;2023-02-28T04:51:16;4.60;77.40
51801;DHT22;37855;53.204;6.568;2023-02-28T04:53:42;4.60;77.50
51801;DHT22;37855;53.204;6.568;2023-02-28T04:56:11;4.60;77.50
51801;DHT22;37855;53.204;6.568;2023-02-28T04:58:37;4.60;77.40
51801;DHT22;37855;53.204;6.568;2023-02-28T05:01:16;4.60;77.50
51801;DHT22;37855;53.204;6.568;2023-02-28T05:03:43;4.60;77.50
51801;DHT22;37855;53.204;6.568;2023-02-28T05:06:11;4.60;77.40
51801;DHT22;37855;53.204;6.568;2023-02-28T05:08:37;4.60;77.40
51801;DHT22;37855;53.204;6.568;2023-02-28T05:11:07;4.50;77.40
51801;DHT22;37855;53.204;6.568;2023-02-28T05:13:34;4.50;77.40
51801;DHT22;37855;53.204;6.568;2023-02-28T05:16:01;4.50;77.40
51801;DHT22;37855;53.204;6.568;2023-02-28T05:18:26;4.50;77.40
51801;DHT22;37855;53.204;6.568;2023-02-28T05:20:52;4.40;77.40
51801;DHT22;37855;53.204;6.568;2023-02-28T05:23:19;4.40;77.40
51801;DHT22;37855;53.204;6.568;2023-02-28T05:25:46;4.40;77.30
51801;DHT22;37855;53.204;6.568;2023-02-28T05:28:12;4.40;77.20
51801;DHT22;37855;53.204;6.568;2023-02-28T05:30:38;4.40;77.20
51801;DHT22;37855;53.204;6.568;2023-02-28T05:33:03;4.30;77.10
51801;DHT22;37855;53.204;6.568;2023-02-28T05:35:29;4.20;77.20
51801;DHT22;37855;53.204;6.568;2023-02-28T05:37:54;4.20;77.20
51801;DHT22;37855;53.204;6.568;2023-02-28T05:40:20;4.20;77.20
51801;DHT22;37855;53.204;6.568;2023-02-28T05:42:47;4.20;77.30
51801;DHT22;37855;53.204;6.568;2023-02-28T05:45:13;4.20;77.30
51801;DHT22;37855;53.204;6.568;2023-02-28T05:47:38;4.20;77.40
51801;DHT22;37855;53.204;6.568;2023-02-28T05:50:05;4.20;77.30
51801;DHT22;37855;53.204;6.568;2023-02-28T05:52:31;4.20;77.30
51801;DHT22;37855;53.204;6.568;2023-02-28T05:57:34;4.20;77.30
51801;DHT22;37855;53.204;6.568;2023-02-28T06:00:06;4.20;77.30
51801;DHT22;37855;53.204;6.568;2023-02-28T06:02:39;4.20;77.20
51801;DHT22;37855;53.204;6.568;2023-02-28T06:05:09;4.20;77.10
51801;DHT22;37855;53.204;6.568;2023-02-28T06:07:38;4.20;77.20
51801;DHT22;37855;53.204;6.568;2023-02-28T06:10:04;4.20;77.10
51801;DHT22;37855;53.204;6.568;2023-02-28T06:12:29;4.20;77.00
51801;DHT22;37855;53.204;6.568;2023-02-28T06:14:55;4.20;77.10
51801;DHT22;37855;53.204;6.568;2023-02-28T06:17:21;4.10;77.00
51801;DHT22;37855;53.204;6.568;2023-02-28T06:19:46;4.10;77.10
51801;DHT22;37855;53.204;6.568;2023-02-28T06:22:13;4.10;77.10
51801;DHT22;37855;53.204;6.568;2023-02-28T06:24:42;4.10;77.20
51801;DHT22;37855;53.204;6.568;2023-02-28T06:27:07;4.10;77.20
51801;DHT22;37855;53.204;6.568;2023-02-28T06:29:35;4.10;77.20
51801;DHT22;37855;53.204;6.568;2023-02-28T06:32:01;4.10;77.20
51801;DHT22;37855;53.204;6.568;2023-02-28T06:34:27;4.10;77.20
51801;DHT22;37855;53.204;6.568;2023-02-28T06:36:53;4.20;77.30
51801;DHT22;37855;53.204;6.568;2023-02-28T06:39:19;4.20;77.20
51801;DHT22;37855;53.204;6.568;2023-02-28T06:41:45;4.10;77.20
51801;DHT22;37855;53.204;6.568;2023-02-28T06:44:15;4.20;77.30
51801;DHT22;37855;53.204;6.568;2023-02-28T06:46:42;4.10;77.20
51801;DHT22;37855;53.204;6.568;2023-02-28T06:49:09;4.10;77.20
51801;DHT22;37855;53.204;6.568;2023-02-28T06:51:36;4.20;77.20
51801;DHT22;37855;53.204;6.568;2023-02-28T06:54:03;4.10;77.00
51801;DHT22;37855;53.204;6.568;2023-02-28T06:56:29;4.10;77.10
51801;DHT22;37855;53.204;6.568;2023-02-28T06:58:54;4.10;77.00
51801;DHT22;37855;53.204;6.568;2023-02-28T07:01:21;4.10;76.90
51801;DHT22;37855;53.204;6.568;2023-02-28T07:03:50;4.10;76.90
51801;DHT22;37855;53.204;6.568;2023-02-28T07:06:21;4.10;76.80
51801;DHT22;37855;53.204;6.568;2023-02-28T07:08:54;4.10;76.70
51801;DHT22;37855;53.204;6.568;2023-02-28T07:11:26;4.00;76.60
51801;DHT22;37855;53.204;6.568;2023-02-28T07:13:53;4.00;76.50
51801;DHT22;37855;53.204;6.568;2023-02-28T07:16:23;4.00;76.50
51801;DHT22;37855;53.204;6.568;2023-02-28T07:18:52;4.00;76.40
51801;DHT22;37855;53.204;6.568;2023-02-28T07:21:22;4.00;76.30
51801;DHT22;37855;53.204;6.568;2023-02-28T07:23:50;3.90;76.20
51801;DHT22;37855;53.204;6.568;2023-02-28T07:26:17;3.90;76.20
51801;DHT22;37855;53.204;6.568;2023-02-28T07:28:45;3.90;76.20
51801;DHT22;37855;53.204;6.568;2023-02-28T07:31:13;3.90;76.20
51801;DHT22;37855;53.204;6.568;2023-02-28T07:33:42;3.90;76.20
51801;DHT22;37855;53.204;6.568;2023-02-28T07:36:16;3.90;76.30
51801;DHT22;37855;53.204;6.568;2023-02-28T07:38:45;3.90;76.30
51801;DHT22;37855;53.204;6.568;2023-02-28T07:41:17;3.90;76.30
51801;DHT22;37855;53.204;6.568;2023-02-28T07:43:44;3.90;76.30
51801;DHT22;37855;53.204;6.568;2023-02-28T07:46:12;3.90;76.20
51801;DHT22;37855;53.204;6.568;2023-02-28T07:48:40;3.90;76.20
51801;DHT22;37855;53.204;6.568;2023-02-28T07:51:06;3.90;76.10
51801;DHT22;37855;53.204;6.568;2023-02-28T07:53:34;3.90;76.00
51801;DHT22;37855;53.204;6.568;2023-02-28T07:56:00;3.90;76.00
51801;DHT22;37855;53.204;6.568;2023-02-28T07:58:28;3.90;75.90
51801;DHT22;37855;53.204;6.568;2023-02-28T08:00:54;4.00;75.80
51801;DHT22;37855;53.204;6.568;2023-02-28T08:03:22;4.00;75.50
51801;DHT22;37855;53.204;6.568;2023-02-28T08:05:49;4.00;75.50
51801;DHT22;37855;53.204;6.568;2023-02-28T08:10:40;4.00;75.50
51801;DHT22;37855;53.204;6.568;2023-02-28T08:13:06;4.00;75.50
51801;DHT22;37855;53.204;6.568;2023-02-28T08:15:32;4.00;75.30
51801;DHT22;37855;53.204;6.568;2023-02-28T08:17:58;4.00;75.20
51801;DHT22;37855;53.204;6.568;2023-02-28T08:20:25;3.90;75.40
51801;DHT22;37855;53.204;6.568;2023-02-28T08:22:51;3.90;75.80
51801;DHT22;37855;53.204;6.568;2023-02-28T08:25:17;3.90;76.00
51801;DHT22;37855;53.204;6.568;2023-02-28T08:27:43;4.00;76.10
51801;DHT22;37855;53.204;6.568;2023-02-28T08:30:12;4.10;76.10
51801;DHT22;37855;53.204;6.568;2023-02-28T08:32:38;4.10;76.10
51801;DHT22;37855;53.204;6.568;2023-02-28T08:35:04;4.20;76.10
51801;DHT22;37855;53.204;6.568;2023-02-28T08:37:30;4.30;76.00
51801;DHT22;37855;53.204;6.568;2023-02-28T08:39:55;4.30;76.10
51801;DHT22;37855;53.204;6.568;2023-02-28T08:42:21;4.40;76.10
51801;DHT22;37855;53.204;6.568;2023-02-28T08:44:47;4.50;76.10
51801;DHT22;37855;53.204;6.568;2023-02-28T08:47:13;4.60;76.00
51801;DHT22;37855;53.204;6.568;2023-02-28T08:49:38;4.60;76.00
51801;DHT22;37855;53.204;6.568;2023-02-28T08:52:04;4.70;75.90
51801;DHT22;37855;53.204;6.568;2023-02-28T08:54:30;4.80;75.80
51801;DHT22;37855;53.204;6.568;2023-02-28T08:56:58;4.90;75.70
51801;DHT22;37855;53.204;6.568;2023-02-28T08:59:32;4.90;75.70
51801;DHT22;37855;53.204;6.568;2023-02-28T09:02:14;5.00;75.60
51801;DHT22;37855;53.204;6.568;2023-02-28T09:04:45;5.00;75.50
51801;DHT22;37855;53.204;6.568;2023-02-28T09:07:16;5.10;75.40
51801;DHT22;37855;53.204;6.568;2023-02-28T09:09:42;5.20;75.20
51801;DHT22;37855;53.204;6.568;2023-02-28T09:12:24;5.20;75.00
51801;DHT22;37855;53.204;6.568;2023-02-28T09:14:51;5.20;74.80
51801;DHT22;37855;53.204;6.568;2023-02-28T09:17:17;5.20;74.80
51801;DHT22;37855;53.204;6.568;2023-02-28T09:19:48;5.30;74.80
51801;DHT22;37855;53.204;6.568;2023-02-28T09:22:14;5.30;74.70
51801;DHT22;37855;53.204;6.568;2023-02-28T09:24:41;5.40;74.50
51801;DHT22;37855;53.204;6.568;2023-02-28T09:27:07;5.40;74.40
51801;DHT22;37855;53.204;6.568;2023-02-28T09:29:34;5.50;74.20
51801;DHT22;37855;53.204;6.568;2023-02-28T09:32:00;5.60;74.00
51801;DHT22;37855;53.204;6.568;2023-02-28T09:34:27;5.60;73.80
51801;DHT22;37855;53.204;6.568;2023-02-28T09:36:55;5.70;73.70
51801;DHT22;37855;53.204;6.568;2023-02-28T09:39:27;5.80;73.40
51801;DHT22;37855;53.204;6.568;2023-02-28T09:41:55;5.90;72.80
51801;DHT22;37855;53.204;6.568;2023-02-28T09:44:40;5.90;72.70
51801;DHT22;37855;53.204;6.568;2023-02-28T09:49:44;5.90;72.30
51801;DHT22;37855;53.204;6.568;2023-02-28T09:52:21;5.90;72.20
51801;DHT22;37855;53.204;6.568;2023-02-28T09:54:49;5.90;72.10
51801;DHT22;37855;53.204;6.568;2023-02-28T10:04:58;6.00;71.20
51801;DHT22;37855;53.204;6.568;2023-02-28T10:07:40;6.00;71.40
51801;DHT22;37855;53.204;6.568;2023-02-28T10:10:36;6.00;71.30
51801;DHT22;37855;53.204;6.568;2023-02-28T10:13:27;6.00;71.10
51801;DHT22;37855;53.204;6.568;2023-02-28T10:15:55;6.00;70.60
51801;DHT22;37855;53.204;6.568;2023-02-28T10:18:26;6.00;70.10
51801;DHT22;37855;53.204;6.568;2023-02-28T10:20:53;5.90;69.90
51801;DHT22;37855;53.204;6.568;2023-02-28T10:23:31;5.90;68.60
51801;DHT22;37855;53.204;6.568;2023-02-28T10:26:10;5.80;69.70
51801;DHT22;37855;53.204;6.568;2023-02-28T10:28:37;5.80;69.80
51801;DHT22;37855;53.204;6.568;2023-02-28T10:31:03;5.80;69.50
51801;DHT22;37855;53.204;6.568;2023-02-28T10:33:34;5.80;69.70
51801;DHT22;37855;53.204;6.568;2023-02-28T10:36:04;5.80;69.10
51801;DHT22;37855;53.204;6.568;2023-02-28T10:38:39;5.90;69.30
51801;DHT22;37855;53.204;6.568;2023-02-28T10:41:07;5.90;69.30
51801;DHT22;37855;53.204;6.568;2023-02-28T10:43:33;5.90;69.30
51801;DHT22;37855;53.204;6.568;2023-02-28T10:46:12;5.90;69.40
51801;DHT22;37855;53.204;6.568;2023-02-28T10:48:57;6.00;69.30
51801;DHT22;37855;53.204;6.568;2023-02-28T10:51:25;6.00;69.10
51801;DHT22;37855;53.204;6.568;2023-02-28T10:53:52;6.00;69.00
51801;DHT22;37855;53.204;6.568;2023-02-28T10:56:23;6.10;68.90
51801;DHT22;37855;53.204;6.568;2023-02-28T10:59:02;6.20;68.90
51801;DHT22;37855;53.204;6.568;2023-02-28T11:01:44;6.20;68.90
51801;DHT22;37855;53.204;6.568;2023-02-28T11:07:03;6.30;66.70
51801;DHT22;37855;53.204;6.568;2023-02-28T11:09:38;6.30;67.20
51801;DHT22;37855;53.204;6.568;2023-02-28T11:12:07;6.30;67.00
51801;DHT22;37855;53.204;6.568;2023-02-28T11:14:48;6.30;66.90
51801;DHT22;37855;53.204;6.568;2023-02-28T11:17:20;6.40;66.60
51801;DHT22;37855;53.204;6.568;2023-02-28T11:19:50;6.40;66.60
51801;DHT22;37855;53.204;6.568;2023-02-28T11:22:23;6.40;65.90
51801;DHT22;37855;53.204;6.568;2023-02-28T11:24:55;6.50;64.70
51801;DHT22;37855;53.204;6.568;2023-02-28T11:28:03;6.50;64.10
51801;DHT22;37855;53.204;6.568;2023-02-28T11:30:41;6.50;64.60
51801;DHT22;37855;53.204;6.568;2023-02-28T11:33:25;6.60;64.40
51801;DHT22;37855;53.204;6.568;2023-02-28T11:35:52;6.70;64.10
51801;DHT22;37855;53.204;6.568;2023-02-28T11:38:19;6.70;62.00
51801;DHT22;37855;53.204;6.568;2023-02-28T11:43:30;6.60;62.40
51801;DHT22;37855;53.204;6.568;2023-02-28T11:46:27;6.60;63.00
51801;DHT22;37855;53.204;6.568;2023-02-28T11:49:15;6.60;61.30
51801;DHT22;37855;53.204;6.568;2023-02-28T12:00:33;6.90;61.90
51801;DHT22;37855;53.204;6.568;2023-02-28T12:08:53;7.30;62.00
51801;DHT22;37855;53.204;6.568;2023-02-28T12:11:52;7.30;62.00
51801;DHT22;37855;53.204;6.568;2023-02-28T12:17:32;7.40;61.60
51801;DHT22;37855;53.204;6.568;2023-02-28T12:20:33;7.50;61.60
51801;DHT22;37855;53.204;6.568;2023-02-28T12:28:35;7.40;60.10
51801;DHT22;37855;53.204;6.568;2023-02-28T12:31:11;7.50;60.30
51801;DHT22;37855;53.204;6.568;2023-02-28T12:33:44;7.50;60.50
51801;DHT22;37855;53.204;6.568;2023-02-28T12:36:18;7.50;58.70
51801;DHT22;37855;53.204;6.568;2023-02-28T12:38:56;7.50;60.00
51801;DHT22;37855;53.204;6.568;2023-02-28T12:41:51;7.50;58.90
51801;DHT22;37855;53.204;6.568;2023-02-28T12:44:48;7.50;59.40
51801;DHT22;37855;53.204;6.568;2023-02-28T12:47:16;7.60;59.60
51801;DHT22;37855;53.204;6.568;2023-02-28T12:49:52;7.70;60.10
51801;DHT22;37855;53.204;6.568;2023-02-28T12:52:31;7.60;57.70
51801;DHT22;37855;53.204;6.568;2023-02-28T12:58:00;7.50;58.20
51801;DHT22;37855;53.204;6.568;2023-02-28T13:00:35;7.50;58.80
51801;DHT22;37855;53.204;6.568;2023-02-28T13:11:51;7.50;56.90
51801;DHT22;37855;53.204;6.568;2023-02-28T13:19:56;7.70;56.00
51801;DHT22;37855;53.204;6.568;2023-02-28T13:22:44;7.60;56.70
51801;DHT22;37855;53.204;6.568;2023-02-28T13:27:59;7.70;58.10
51801;DHT22;37855;53.204;6.568;2023-02-28T13:36:11;7.60;57.40
51801;DHT22;37855;53.204;6.568;2023-02-28T13:41:42;7.60;57.50
51801;DHT22;37855;53.204;6.568;2023-02-28T13:44:20;7.60;57.90
51801;DHT22;37855;53.204;6.568;2023-02-28T13:49:27;7.80;58.30
51801;DHT22;37855;53.204;6.568;2023-02-28T13:54:59;7.80;56.00
51801;DHT22;37855;53.204;6.568;2023-02-28T13:57:44;7.90;56.20
51801;DHT22;37855;53.204;6.568;2023-02-28T14:06:28;7.90;51.90
51801;DHT22;37855;53.204;6.568;2023-02-28T14:09:02;7.70;52.70
51801;DHT22;37855;53.204;6.568;2023-02-28T14:11:32;7.70;52.50
51801;DHT22;37855;53.204;6.568;2023-02-28T14:13:58;7.60;54.00
51801;DHT22;37855;53.204;6.568;2023-02-28T14:16:26;7.40;54.40
51801;DHT22;37855;53.204;6.568;2023-02-28T14:19:14;7.30;54.70
51801;DHT22;37855;53.204;6.568;2023-02-28T14:27:26;7.30;56.50
51801;DHT22;37855;53.204;6.568;2023-02-28T14:32:27;7.50;56.20
51801;DHT22;37855;53.204;6.568;2023-02-28T14:37:46;7.40;56.30
51801;DHT22;37855;53.204;6.568;2023-02-28T14:40:27;7.50;53.50
51801;DHT22;37855;53.204;6.568;2023-02-28T14:43:03;7.50;53.30
51801;DHT22;37855;53.204;6.568;2023-02-28T14:45:33;7.40;53.90
51801;DHT22;37855;53.204;6.568;2023-02-28T14:48:01;7.20;54.70
51801;DHT22;37855;53.204;6.568;2023-02-28T14:50:36;7.10;55.30
51801;DHT22;37855;53.204;6.568;2023-02-28T14:53:03;7.00;55.80
51801;DHT22;37855;53.204;6.568;2023-02-28T14:55:35;6.90;55.70
51801;DHT22;37855;53.204;6.568;2023-02-28T14:58:03;6.80;55.80
51801;DHT22;37855;53.204;6.568;2023-02-28T15:00:35;6.80;56.00
51801;DHT22;37855;53.204;6.568;2023-02-28T15:03:19;6.80;55.10
51801;DHT22;37855;53.204;6.568;2023-02-28T15:06:02;6.80;55.30
51801;DHT22;37855;53.204;6.568;2023-02-28T15:08:30;6.70;54.30
51801;DHT22;37855;53.204;6.568;2023-02-28T15:11:16;6.70;54.50
51801;DHT22;37855;53.204;6.568;2023-02-28T15:13:50;6.70;54.90
51801;DHT22;37855;53.204;6.568;2023-02-28T15:23:54;6.80;56.50
51801;DHT22;37855;53.204;6.568;2023-02-28T15:37:00;7.10;55.40
51801;DHT22;37855;53.204;6.568;2023-02-28T15:39:42;7.00;55.40
51801;DHT22;37855;53.204;6.568;2023-02-28T15:42:20;6.90;54.90
51801;DHT22;37855;53.204;6.568;2023-02-28T15:44:47;6.90;55.30
51801;DHT22;37855;53.204;6.568;2023-02-28T15:47:24;6.90;55.70
51801;DHT22;37855;53.204;6.568;2023-02-28T15:50:02;6.90;56.30
51801;DHT22;37855;53.204;6.568;2023-02-28T15:52:38;6.90;56.40
51801;DHT22;37855;53.204;6.568;2023-02-28T15:55:26;6.80;55.80
51801;DHT22;37855;53.204;6.568;2023-02-28T15:57:56;6.80;56.00
51801;DHT22;37855;53.204;6.568;2023-02-28T16:03:50;6.70;56.10
51801;DHT22;37855;53.204;6.568;2023-02-28T16:08:42;6.70;56.20
51801;DHT22;37855;53.204;6.568;2023-02-28T16:11:11;6.70;56.30
51801;DHT22;37855;53.204;6.568;2023-02-28T16:13:39;6.60;56.90
51801;DHT22;37855;53.204;6.568;2023-02-28T16:16:05;6.70;56.80
51801;DHT22;37855;53.204;6.568;2023-02-28T16:18:31;6.70;56.90
51801;DHT22;37855;53.204;6.568;2023-02-28T16:21:02;6.60;57.40
51801;DHT22;37855;53.204;6.568;2023-02-28T16:23:34;6.50;58.00
51801;DHT22;37855;53.204;6.568;2023-02-28T16:26:23;6.40;58.00
51801;DHT22;37855;53.204;6.568;2023-02-28T16:29:39;6.50;57.70
51801;DHT22;37855;53.204;6.568;2023-02-28T16:32:06;6.50;57.40
51801;DHT22;37855;53.204;6.568;2023-02-28T16:34:31;6.40;58.10
51801;DHT22;37855;53.204;6.568;2023-02-28T16:36:57;6.30;58.70
51801;DHT22;37855;53.204;6.568;2023-02-28T16:39:49;6.30;59.20
51801;DHT22;37855;53.204;6.568;2023-02-28T16:42:25;6.30;58.60
51801;DHT22;37855;53.204;6.568;2023-02-28T16:45:03;6.30;58.20
51801;DHT22;37855;53.204;6.568;2023-02-28T16:47:29;6.20;58.60
51801;DHT22;37855;53.204;6.568;2023-02-28T16:49:57;6.10;58.80
51801;DHT22;37855;53.204;6.568;2023-02-28T16:52:23;6.10;58.80
51801;DHT22;37855;53.204;6.568;2023-02-28T16:55:00;6.00;59.20
51801;DHT22;37855;53.204;6.568;2023-02-28T16:57:26;6.00;59.40
51801;DHT22;37855;53.204;6.568;2023-02-28T16:59:52;6.00;59.60
51801;DHT22;37855;53.204;6.568;2023-02-28T17:02:18;5.90;59.80
51801;DHT22;37855;53.204;6.568;2023-02-28T17:04:47;5.90;60.00
51801;DHT22;37855;53.204;6.568;2023-02-28T17:07:16;6.00;59.70
51801;DHT22;37855;53.204;6.568;2023-02-28T17:09:43;5.90;59.80
51801;DHT22;37855;53.204;6.568;2023-02-28T17:12:09;5.80;59.90
51801;DHT22;37855;53.204;6.568;2023-02-28T17:14:36;5.80;59.90
51801;DHT22;37855;53.204;6.568;2023-02-28T17:17:04;5.80;60.00
51801;DHT22;37855;53.204;6.568;2023-02-28T17:19:31;5.70;60.30
51801;DHT22;37855;53.204;6.568;2023-02-28T17:21:58;5.70;60.40
51801;DHT22;37855;53.204;6.568;2023-02-28T17:24:24;5.60;60.50
51801;DHT22;37855;53.204;6.568;2023-02-28T17:26:50;5.70;60.40
51801;DHT22;37855;53.204;6.568;2023-02-28T17:29:20;5.60;60.70
51801;DHT22;37855;53.204;6.568;2023-02-28T17:31:47;5.50;60.80
51801;DHT22;37855;53.204;6.568;2023-02-28T17:34:13;5.60;60.50
51801;DHT22;37855;53.204;6.568;2023-02-28T17:36:44;5.50;60.80
51801;DHT22;37855;53.204;6.568;2023-02-28T17:39:11;5.40;61.10
51801;DHT22;37855;53.204;6.568;2023-02-28T17:41:42;5.40;61.30
51801;DHT22;37855;53.204;6.568;2023-02-28T17:44:08;5.30;61.40
51801;DHT22;37855;53.204;6.568;2023-02-28T17:46:35;5.30;61.70
51801;DHT22;37855;53.204;6.568;2023-02-28T17:49:01;5.30;61.70
51801;DHT22;37855;53.204;6.568;2023-02-28T17:51:27;5.30;62.00
51801;DHT22;37855;53.204;6.568;2023-02-28T17:53:52;5.20;62.10
51801;DHT22;37855;53.204;6.568;2023-02-28T17:56:23;5.20;62.20
51801;DHT22;37855;53.204;6.568;2023-02-28T17:58:51;5.20;62.50
51801;DHT22;37855;53.204;6.568;2023-02-28T18:01:18;5.30;62.90
51801;DHT22;37855;53.204;6.568;2023-02-28T18:03:46;5.40;62.40
51801;DHT22;37855;53.204;6.568;2023-02-28T18:06:28;5.50;62.70
51801;DHT22;37855;53.204;6.568;2023-02-28T18:08:56;5.40;64.00
51801;DHT22;37855;53.204;6.568;2023-02-28T18:11:23;5.20;65.20
51801;DHT22;37855;53.204;6.568;2023-02-28T18:13:53;5.20;65.40
51801;DHT22;37855;53.204;6.568;2023-02-28T18:16:21;5.20;66.30
51801;DHT22;37855;53.204;6.568;2023-02-28T18:18:49;5.10;66.60
51801;DHT22;37855;53.204;6.568;2023-02-28T18:21:15;5.10;67.60
51801;DHT22;37855;53.204;6.568;2023-02-28T18:23:42;5.10;67.60
51801;DHT22;37855;53.204;6.568;2023-02-28T18:26:29;5.00;67.80
51801;DHT22;37855;53.204;6.568;2023-02-28T18:28:56;5.00;68.50
51801;DHT22;37855;53.204;6.568;2023-02-28T18:31:22;5.00;68.90
51801;DHT22;37855;53.204;6.568;2023-02-28T18:33:49;4.90;69.00
51801;DHT22;37855;53.204;6.568;2023-02-28T18:36:16;4.80;69.40
51801;DHT22;37855;53.204;6.568;2023-02-28T18:38:41;4.70;69.80
51801;DHT22;37855;53.204;6.568;2023-02-28T18:41:08;4.70;69.70
51801;DHT22;37855;53.204;6.568;2023-02-28T18:43:35;4.70;69.70
51801;DHT22;37855;53.204;6.568;2023-02-28T18:46:14;4.70;70.00
51801;DHT22;37855;53.204;6.568;2023-02-28T18:48:44;4.90;69.90